首页
METAR-TAF:

METAR-TAF

机场 :

哈利法克斯罗伯特·洛恩·斯坦菲尔德国际机场

哈利法克斯, 新斯科舍, 加拿大

纬度: 44-53N, 经度: 063-30W, 海拔: 145米

当前天气观测

该预报发布于58分钟前的06:00 UTC
风速8节,风向西转西北
温度 3°C
湿度 93%
气压 1017 hPa
能見度: 24.1公里
多云层高于2700英尺

METAR: CYHZ 190600Z 30008KT 15SM BKN027 03/02 A3004 RMK SC6 SLP180

时间: 03:58 (06:58 UTC)

预报

该预报发布于1小时和20分钟前的05:38 UTC
预报有效从19日的 06点(UTC)到 20日的 06点(UTC)
风速12节,风向西北
能見度: 10公里
多云层高于3000英尺
短暂存在
从 19日的 06点(UTC)到 19日的 08点(UTC)
多云层高于2000英尺
几率 30%
从 19日的 08点(UTC)到 19日的 12点(UTC)
多云层高于800英尺
从 19日的 1200点(UTC)
风速12节,风向西北
能見度: 10公里
少量云层高于3000英尺
从 19日的 1800点(UTC)
风速10节,风向西转西北
能見度: 10公里
散云层高于3000英尺
多云层高于12000英尺
成为
从 19日的 23点(UTC)到 20日的 01点(UTC)
风速3节,风向多变

TAF: CYHZ 190538Z 1906/2006 32012KT P6SM BKN030 TEMPO 1906/1908 BKN020 PROB30 1908/1912 BKN008 FM191200 32012KT P6SM FEW030 FM191800 30010KT P6SM SCT030 BKN120 BECMG 1923/2001 VRB03KT RMK NXT FCST BY 190900Z

超过4000个机场的气象观测和天气预报(METAR&TAF报告)。

可查询的气象台以黄色和红色小点在地图上表示。

将鼠标移到小点上方,可查看气象台名称。

然后点击查看天气观测和预报。

如需切换地图:点击带黑十字的绿色按钮放大地图;点击带横线的绿色按钮缩小地图;或者点击绿色箭头查看邻近地区的地图。


METAR-TAF: